Time;durP1;ratioP1;P1;durP2;ratioP2;P2;SDS_P1;SDS_P2;PMS_P1;PMS_P2;Temp;Humidity;BMP_temperature;BMP_pressure;BME280_temperature;BME280_humidity;BME280_pressure;Samples;Min_cycle;Max_cycle;Signal;HPM_P1;HPM_P2
2023/10/28 00:00:17;;;;;;;9.23;6.67;;;;;;;9.79;100.00;100554.22;4986511;28;20687;-73
2023/10/28 00:02:43;;;;;;;7.77;6.20;;;;;;;9.50;100.00;100515.16;4984060;28;21811;-73
2023/10/28 00:05:09;;;;;;;8.50;6.13;;;;;;;9.33;100.00;100493.25;4989565;28;20494;-73
2023/10/28 00:07:35;;;;;;;8.23;6.37;;;;;;;9.45;100.00;100547.06;4989198;28;20442;-73
2023/10/28 00:10:02;;;;;;;8.43;6.80;;;;;;;9.93;100.00;100576.53;4986483;28;20549;-72
2023/10/28 00:12:28;;;;;;;7.20;5.50;;;;;;;9.98;100.00;100598.19;4988592;28;20453;-73
2023/10/28 00:14:54;;;;;;;7.37;5.73;;;;;;;9.70;100.00;100542.03;4986883;28;20452;-74
2023/10/28 00:17:20;;;;;;;7.60;5.77;;;;;;;9.40;100.00;100523.56;4989374;28;20583;-73
2023/10/28 00:19:46;;;;;;;8.20;6.10;;;;;;;9.98;100.00;100583.94;4985168;28;20205;-73
2023/10/28 00:22:55;;;;;;;7.83;6.17;;;;;;;10.08;100.00;100597.81;4985306;28;20200;-73
2023/10/28 00:25:29;;;;;;;8.53;6.80;;;;;;;9.24;100.00;100511.34;4981931;28;20811;-73
2023/10/28 00:27:55;;;;;;;8.90;5.93;;;;;;;9.58;100.00;100520.34;4984289;28;20857;-73
2023/10/28 00:30:22;;;;;;;8.60;6.93;;;;;;;9.55;100.00;100520.75;4987174;28;20551;-73
2023/10/28 00:32:49;;;;;;;9.03;6.00;;;;;;;9.89;100.00;100585.97;4988579;28;20805;-73
2023/10/28 00:35:58;;;;;;;8.63;6.57;;;;;;;10.05;100.00;100609.75;4980907;28;20448;-73
2023/10/28 00:38:24;;;;;;;7.70;6.40;;;;;;;9.90;100.00;100593.00;4982683;28;21183;-73
2023/10/28 00:40:49;;;;;;;8.30;6.57;;;;;;;9.81;100.00;100567.41;4983467;28;20448;-73
2023/10/28 00:43:15;;;;;;;8.07;5.93;;;;;;;9.77;100.00;100575.00;4983510;28;20760;-73
2023/10/28 00:45:41;;;;;;;7.93;6.07;;;;;;;9.43;100.00;100506.25;4985476;28;20648;-73
2023/10/28 00:48:07;;;;;;;7.60;5.50;;;;;;;9.70;100.00;100558.09;4983709;28;21983;-73
2023/10/28 00:50:32;;;;;;;8.40;6.33;;;;;;;9.72;100.00;100574.81;4987402;28;20194;-72
2023/10/28 00:53:00;;;;;;;8.60;6.13;;;;;;;9.96;100.00;100594.88;4986322;28;20496;-72
2023/10/28 00:55:29;;;;;;;7.30;5.80;;;;;;;9.32;100.00;100496.97;4987690;28;20217;-73
2023/10/28 00:57:55;;;;;;;7.57;5.87;;;;;;;9.33;100.00;100503.16;4983646;28;20452;-74
2023/10/28 01:00:21;;;;;;;9.17;6.83;;;;;;;9.34;100.00;100516.31;4980760;28;21211;-73
2023/10/28 01:02:46;;;;;;;8.30;6.27;;;;;;;9.91;100.00;100611.53;4984418;28;20527;-73
2023/10/28 01:05:13;;;;;;;7.00;5.43;;;;;;;9.44;100.00;100524.00;4987841;28;20221;-73
2023/10/28 01:07:41;;;;;;;8.00;6.23;;;;;;;9.27;100.00;100508.25;4986263;28;20705;-74
2023/10/28 01:10:08;;;;;;;7.47;5.87;;;;;;;9.89;100.00;100600.22;4979976;28;20486;-73
2023/10/28 01:12:34;;;;;;;8.57;6.20;;;;;;;9.31;100.00;100510.53;4990081;28;20432;-73
2023/10/28 01:15:01;;;;;;;7.90;6.03;;;;;;;9.80;100.00;100590.69;4980655;28;20448;-73
2023/10/28 01:17:27;;;;;;;8.10;5.90;;;;;;;9.31;100.00;100503.31;4983254;28;20658;-73
2023/10/28 01:19:53;;;;;;;8.47;6.43;;;;;;;10.00;100.00;100608.69;4990106;28;20467;-74
2023/10/28 01:22:23;;;;;;;8.10;6.60;;;;;;;9.28;100.00;100523.28;4983531;28;20198;-73
2023/10/28 01:24:49;;;;;;;7.97;5.87;;;;;;;9.30;100.00;100520.41;4983265;28;20443;-73
2023/10/28 01:27:16;;;;;;;8.10;6.00;;;;;;;9.88;100.00;100605.75;4979637;28;20441;-74
2023/10/28 01:29:41;;;;;;;9.57;6.40;;;;;;;9.70;100.00;100574.16;4978699;28;21012;-73
2023/10/28 01:32:07;;;;;;;8.80;6.90;;;;;;;9.78;100.00;100624.91;4980539;28;20513;-73
2023/10/28 01:34:33;;;;;;;8.40;6.37;;;;;;;9.81;100.00;100621.81;4982981;28;20277;-72
2023/10/28 01:36:59;;;;;;;8.40;6.67;;;;;;;9.78;100.00;100605.28;4982513;28;20444;-73
2023/10/28 01:39:25;;;;;;;10.13;7.17;;;;;;;9.85;100.00;100632.94;4986206;28;20302;-73
2023/10/28 01:41:51;;;;;;;8.13;5.87;;;;;;;9.58;100.00;100563.19;4983992;28;20449;-73
2023/10/28 01:44:18;;;;;;;8.03;6.33;;;;;;;9.31;100.00;100539.97;4983799;28;20477;-74
2023/10/28 01:46:44;;;;;;;6.90;5.07;;;;;;;9.27;100.00;100544.91;4984466;28;21024;-73
2023/10/28 01:49:10;;;;;;;8.10;6.20;;;;;;;9.33;100.00;100532.59;4982492;28;20961;-73
2023/10/28 01:51:36;;;;;;;7.93;6.23;;;;;;;9.34;100.00;100527.03;4987810;28;20276;-74
2023/10/28 01:54:02;;;;;;;8.00;6.47;;;;;;;10.07;100.00;100614.91;4982290;28;20445;-73
2023/10/28 01:59:06;;;;;;;6.80;5.37;;;;;;;9.89;100.00;100594.88;4976789;28;20241;-69
2023/10/28 02:01:35;;;;;;;7.30;6.30;;;;;;;9.90;100.00;100603.72;4976699;28;20920;-70
2023/10/28 02:04:06;;;;;;;7.57;5.43;;;;;;;9.97;100.00;100599.19;4977866;28;20214;-70
2023/10/28 02:06:32;;;;;;;7.90;5.50;;;;;;;9.90;100.00;100607.22;4972796;28;20475;-70
2023/10/28 02:08:57;;;;;;;7.83;5.70;;;;;;;9.99;100.00;100615.91;4981808;28;20998;-70
2023/10/28 02:11:23;;;;;;;8.80;6.13;;;;;;;10.08;100.00;100620.06;4977868;28;20429;-70
2023/10/28 02:13:49;;;;;;;7.17;5.50;;;;;;;9.83;100.00;100568.84;4976596;28;20185;-69
2023/10/28 02:16:15;;;;;;;6.57;5.40;;;;;;;9.84;100.00;100609.88;4977796;28;20248;-70
2023/10/28 02:18:41;;;;;;;7.93;5.77;;;;;;;9.70;100.00;100574.16;4973970;28;20445;-69
2023/10/28 02:21:06;;;;;;;6.97;5.80;;;;;;;9.63;100.00;100574.16;4978406;28;20539;-70
2023/10/28 02:23:32;;;;;;;8.50;6.60;;;;;;;9.83;100.00;100602.84;4977307;28;20206;-70
2023/10/28 02:25:58;;;;;;;8.70;6.07;;;;;;;9.25;100.00;100483.53;4978690;28;20186;-70
2023/10/28 02:28:23;;;;;;;8.20;6.07;;;;;;;9.79;100.00;100591.72;4977927;28;20182;-69
2023/10/28 02:30:49;;;;;;;8.53;6.43;;;;;;;9.69;100.00;100561.78;4978111;28;20706;-69
2023/10/28 02:33:14;;;;;;;8.87;6.43;;;;;;;9.83;100.00;100598.31;4975008;28;20190;-70
2023/10/28 02:35:40;;;;;;;8.03;6.00;;;;;;;9.99;100.00;100617.75;4977833;28;20773;-70
2023/10/28 02:38:05;;;;;;;9.30;6.43;;;;;;;9.73;100.00;100577.25;4979018;28;20555;-70
2023/10/28 02:40:31;;;;;;;7.07;5.80;;;;;;;9.84;100.00;100609.88;4979546;28;20205;-70
2023/10/28 02:42:56;;;;;;;9.53;7.73;;;;;;;9.65;100.00;100596.19;4975449;28;20210;-69
2023/10/28 02:45:22;;;;;;;8.33;6.87;;;;;;;9.03;100.00;100490.84;4975115;28;20201;-70
2023/10/28 02:47:49;;;;;;;9.17;7.17;;;;;;;9.54;100.00;100555.75;4976633;28;20194;-69
2023/10/28 02:50:16;;;;;;;9.70;7.77;;;;;;;9.98;100.00;100646.41;4976920;28;20281;-70
2023/10/28 02:52:42;;;;;;;11.60;8.47;;;;;;;10.08;100.00;100643.34;4976780;28;20442;-70
2023/10/28 02:55:08;;;;;;;11.33;8.63;;;;;;;9.81;100.00;100599.56;4979788;28;20912;-70
2023/10/28 02:57:33;;;;;;;11.53;8.87;;;;;;;9.60;100.00;100593.25;4981444;28;20277;-70
2023/10/28 02:59:58;;;;;;;10.67;8.30;;;;;;;10.00;100.00;100651.56;4977768;28;20209;-70
2023/10/28 03:02:24;;;;;;;11.00;8.57;;;;;;;10.03;100.00;100651.16;4981754;28;20189;-69
2023/10/28 03:04:49;;;;;;;11.33;9.47;;;;;;;9.81;100.00;100621.81;4971895;28;20189;-70
2023/10/28 03:07:15;;;;;;;11.87;8.80;;;;;;;10.15;100.00;100645.03;4984008;28;20726;-70
2023/10/28 03:09:40;;;;;;;10.00;7.90;;;;;;;9.23;100.00;100531.09;4979306;28;20264;-70
2023/10/28 03:12:06;;;;;;;11.60;9.30;;;;;;;9.66;100.00;100627.31;4979764;28;20186;-70
2023/10/28 03:14:31;;;;;;;10.40;8.43;;;;;;;10.03;100.00;100651.97;4974433;28;20566;-68
2023/10/28 03:16:57;;;;;;;10.23;8.00;;;;;;;9.84;100.00;100621.41;4970463;28;20186;-70
2023/10/28 03:19:22;;;;;;;11.43;8.57;;;;;;;9.84;100.00;100634.81;4991729;28;20205;-70
2023/10/28 03:21:47;;;;;;;11.70;8.90;;;;;;;10.00;100.00;100679.19;4979370;28;20244;-69
2023/10/28 03:24:13;;;;;;;11.60;9.00;;;;;;;10.05;100.00;100671.38;4991243;28;20206;-69
2023/10/28 03:26:38;;;;;;;14.23;9.73;;;;;;;9.99;100.00;100674.84;4978511;28;20201;-70
2023/10/28 03:29:04;;;;;;;13.03;9.77;;;;;;;9.77;100.00;100649.19;4980198;28;20182;-69
2023/10/28 03:31:29;;;;;;;11.87;9.30;;;;;;;9.79;100.00;100663.22;4980228;28;20205;-69
2023/10/28 03:33:55;;;;;;;13.53;9.40;;;;;;;10.14;100.00;100688.13;4978700;28;20274;-69
2023/10/28 03:36:21;;;;;;;11.23;8.93;;;;;;;10.04;100.00;100688.50;4975909;28;20677;-70
2023/10/28 03:38:56;;;;;;;11.50;8.63;;;;;;;10.01;100.00;100675.50;4971135;28;20224;-68
2023/10/28 03:41:22;;;;;;;13.10;10.00;;;;;;;10.05;100.00;100678.59;4977374;28;20440;-70
2023/10/28 03:43:48;;;;;;;11.00;9.27;;;;;;;10.09;100.00;100682.53;4976744;28;20457;-70
2023/10/28 03:46:18;;;;;;;13.97;10.63;;;;;;;10.11;100.00;100688.50;4972806;28;20464;-70
2023/10/28 03:48:44;;;;;;;11.90;9.63;;;;;;;10.16;100.00;100692.25;4974279;28;20260;-70
2023/10/28 03:51:09;;;;;;;12.13;9.00;;;;;;;9.96;100.00;100667.22;4976892;28;20990;-70
2023/10/28 03:53:35;;;;;;;11.50;9.47;;;;;;;10.18;100.00;100692.03;4978652;28;20437;-70
2023/10/28 03:56:00;;;;;;;13.00;9.17;;;;;;;10.13;100.00;100706.06;4981234;28;20186;-69
2023/10/28 03:58:26;;;;;;;13.70;10.30;;;;;;;10.06;100.00;100701.69;4978128;28;20202;-70
2023/10/28 04:00:53;;;;;;;16.00;11.30;;;;;;;9.79;100.00;100681.97;4978765;28;20680;-70
2023/10/28 04:03:22;;;;;;;13.83;10.30;;;;;;;10.01;100.00;100696.94;4974422;28;20198;-69
2023/10/28 04:05:48;;;;;;;13.83;10.73;;;;;;;10.00;100.00;100722.06;4976247;28;20483;-70
2023/10/28 04:08:13;;;;;;;15.33;10.87;;;;;;;9.84;100.00;100680.34;4975942;28;20436;-70
2023/10/28 04:10:39;;;;;;;15.07;11.70;;;;;;;10.06;100.00;100737.34;4976197;28;20467;-70
2023/10/28 04:13:05;;;;;;;13.13;9.90;;;;;;;9.83;100.00;100702.78;4974834;28;20186;-70
2023/10/28 04:15:30;;;;;;;15.03;11.00;;;;;;;10.08;100.00;100743.34;4977584;28;20214;-70
2023/10/28 04:17:56;;;;;;;14.90;11.60;;;;;;;9.77;100.00;100733.03;4977973;28;20204;-69
2023/10/28 04:20:22;;;;;;;16.20;11.10;;;;;;;9.78;100.00;100721.31;4977546;28;20210;-70
2023/10/28 04:22:47;;;;;;;14.37;11.20;;;;;;;9.94;100.00;100773.75;4976502;28;20202;-69
2023/10/28 04:25:14;;;;;;;16.57;11.37;;;;;;;9.93;100.00;100767.56;4982441;28;20552;-70
2023/10/28 04:27:40;;;;;;;18.77;12.63;;;;;;;9.57;100.00;100753.50;4979661;28;20181;-70
2023/10/28 04:30:07;;;;;;;15.40;11.30;;;;;;;9.75;100.00;100775.28;4981723;28;20457;-69
2023/10/28 04:32:32;;;;;;;19.40;10.37;;;;;;;9.89;100.00;100811.88;4983678;28;20186;-70
2023/10/28 04:34:58;;;;;;;16.37;12.67;;;;;;;9.38;100.00;100749.66;4978848;28;20440;-69
2023/10/28 04:37:24;;;;;;;17.07;13.07;;;;;;;9.54;100.00;100813.63;4983369;28;20182;-70
2023/10/28 04:39:51;;;;;;;13.13;10.80;;;;;;;9.93;100.00;100853.31;4974494;28;20213;-70
2023/10/28 04:42:18;;;;;;;16.47;12.50;;;;;;;9.86;100.00;100860.44;4981113;28;20445;-70
2023/10/28 04:44:44;;;;;;;15.70;11.80;;;;;;;9.83;100.00;100865.38;4979599;28;20440;-70
2023/10/28 04:47:09;;;;;;;17.20;13.47;;;;;;;9.06;100.00;100767.88;4980506;28;20449;-69
2023/10/28 04:49:35;;;;;;;16.53;12.00;;;;;;;9.76;100.00;100902.81;4979426;28;20214;-69
2023/10/28 04:52:00;;;;;;;18.27;13.13;;;;;;;9.49;100.00;100869.63;4979778;28;20680;-69
2023/10/28 04:54:25;;;;;;;16.10;12.77;;;;;;;9.84;100.00;100924.13;4982494;28;20189;-70
2023/10/28 04:56:51;;;;;;;17.70;14.20;;;;;;;9.78;100.00;100926.72;4978906;28;20201;-69
2023/10/28 04:59:16;;;;;;;16.33;13.20;;;;;;;9.84;100.00;100940.22;4978098;28;20205;-69
2023/10/28 05:01:42;;;;;;;17.97;12.70;;;;;;;9.79;100.00;100941.81;4981717;28;20776;-70
2023/10/28 05:04:10;;;;;;;18.23;13.03;;;;;;;9.73;100.00;100933.50;4980433;28;20579;-70
2023/10/28 05:06:36;;;;;;;18.60;12.37;;;;;;;9.85;100.00;100946.38;4975634;28;20564;-70
2023/10/28 05:09:02;;;;;;;17.13;13.37;;;;;;;9.60;100.00;100901.22;4977381;28;20449;-70
2023/10/28 05:11:28;;;;;;;18.50;13.30;;;;;;;9.67;100.00;100942.31;4980050;28;20440;-69
2023/10/28 05:13:53;;;;;;;17.23;12.70;;;;;;;9.77;100.00;100939.28;4976435;28;20438;-70
2023/10/28 05:16:19;;;;;;;17.93;12.67;;;;;;;9.67;100.00;100944.97;4978767;28;20185;-69
2023/10/28 05:18:48;;;;;;;16.50;12.77;;;;;;;9.97;100.00;100974.31;4979563;28;20227;-70
2023/10/28 05:21:16;;;;;;;18.80;14.27;;;;;;;9.84;100.00;100992.97;4979343;28;20446;-70
2023/10/28 05:23:43;;;;;;;20.33;14.33;;;;;;;9.53;100.00;100939.69;4977215;28;20975;-70
2023/10/28 05:26:08;;;;;;;16.20;13.13;;;;;;;9.38;100.00;100920.97;4978479;28;20804;-70
2023/10/28 05:28:33;;;;;;;21.10;14.27;;;;;;;9.34;100.00;100941.09;4978267;28;20481;-69
2023/10/28 05:30:59;;;;;;;20.70;14.50;;;;;;;9.70;100.00;101003.53;4981442;28;20221;-70
2023/10/28 05:33:24;;;;;;;19.07;13.17;;;;;;;9.65;100.00;100992.53;4977673;28;20256;-70
2023/10/28 05:35:51;;;;;;;19.73;14.37;;;;;;;9.76;100.00;101027.91;4978542;28;20547;-71
2023/10/28 05:38:17;;;;;;;15.73;12.43;;;;;;;9.61;100.00;101007.34;4979918;28;20181;-69
2023/10/28 05:40:42;;;;;;;17.87;13.77;;;;;;;9.73;100.00;101045.19;4977205;28;20460;-69
2023/10/28 05:43:08;;;;;;;19.53;14.07;;;;;;;9.76;100.00;101058.19;4980571;28;20312;-70
2023/10/28 05:45:33;;;;;;;17.23;13.30;;;;;;;9.80;100.00;101059.47;4979625;28;20193;-70
2023/10/28 05:47:59;;;;;;;17.63;14.20;;;;;;;9.84;100.00;101079.53;4978432;28;20196;-70
2023/10/28 05:50:24;;;;;;;18.50;13.80;;;;;;;9.82;100.00;101084.22;4980109;28;20216;-70
2023/10/28 05:52:49;;;;;;;19.53;14.13;;;;;;;9.67;100.00;101048.59;4980632;28;20664;-70
2023/10/28 05:55:15;;;;;;;18.03;12.60;;;;;;;9.27;100.00;100999.91;4981902;28;20201;-70
2023/10/28 05:57:41;;;;;;;18.97;14.57;;;;;;;9.99;100.00;101103.59;4976546;28;20684;-70
2023/10/28 06:00:11;;;;;;;15.83;12.60;;;;;;;9.86;100.00;101080.13;4980490;28;20213;-69
2023/10/28 06:02:37;;;;;;;16.30;12.60;;;;;;;9.58;100.00;101050.56;4979126;28;20458;-70
2023/10/28 06:05:06;;;;;;;18.00;13.13;;;;;;;9.67;100.00;101051.28;4974651;28;20450;-70
2023/10/28 06:07:32;;;;;;;20.93;14.13;;;;;;;9.67;100.00;101073.53;4975767;28;20433;-69
2023/10/28 06:09:57;;;;;;;17.17;13.53;;;;;;;9.95;100.00;101119.22;4977817;28;20983;-69
2023/10/28 06:12:24;;;;;;;18.40;12.80;;;;;;;9.93;100.00;101097.13;4983075;28;20535;-70
2023/10/28 06:14:51;;;;;;;16.17;12.40;;;;;;;10.11;100.00;101114.66;4976908;28;20178;-70
2023/10/28 06:17:17;;;;;;;20.07;13.47;;;;;;;9.97;100.00;101129.75;4985169;28;20463;-70
2023/10/28 06:19:42;;;;;;;24.00;13.77;;;;;;;9.81;100.00;101105.88;4979447;28;20449;-69
2023/10/28 06:22:11;;;;;;;19.63;14.23;;;;;;;9.82;100.00;101120.91;4980832;28;20439;-69
2023/10/28 06:24:40;;;;;;;22.37;14.87;;;;;;;9.84;100.00;101134.97;4983198;28;20202;-70
2023/10/28 06:27:07;;;;;;;21.60;14.60;;;;;;;9.65;100.00;101123.78;4978587;28;20456;-70
2023/10/28 06:29:32;;;;;;;19.23;13.60;;;;;;;9.73;100.00;101147.78;4976382;28;20461;-69
2023/10/28 06:31:58;;;;;;;18.67;14.00;;;;;;;9.50;100.00;101120.28;4976300;28;20452;-70
2023/10/28 06:34:27;;;;;;;23.77;15.83;;;;;;;9.26;100.00;101086.59;4981241;28;20184;-70
2023/10/28 06:36:53;;;;;;;22.70;14.43;;;;;;;9.58;100.00;101130.91;4975432;28;20193;-69
2023/10/28 06:39:18;;;;;;;20.30;14.60;;;;;;;9.49;100.00;101127.50;4981528;28;21176;-69
2023/10/28 06:41:44;;;;;;;21.07;14.37;;;;;;;9.77;100.00;101187.59;4971175;28;20445;-70
2023/10/28 06:44:09;;;;;;;22.80;15.13;;;;;;;9.74;100.00;101200.34;4979020;28;20249;-69
2023/10/28 06:46:36;;;;;;;19.43;14.37;;;;;;;9.79;100.00;101180.22;4977012;28;20284;-70
2023/10/28 06:49:02;;;;;;;24.10;15.90;;;;;;;9.62;100.00;101195.63;4976183;28;20200;-70
2023/10/28 06:51:27;;;;;;;19.80;14.33;;;;;;;9.79;100.00;101215.88;4979922;28;20873;-70
2023/10/28 06:53:53;;;;;;;20.10;14.40;;;;;;;9.84;100.00;101218.00;4969212;28;20293;-70
2023/10/28 06:56:18;;;;;;;35.20;16.77;;;;;;;9.41;100.00;101186.47;4975559;28;20249;-70
2023/10/28 06:58:44;;;;;;;25.30;14.10;;;;;;;9.75;100.00;101244.06;4973689;28;20217;-69
2023/10/28 07:01:09;;;;;;;23.10;15.87;;;;;;;9.71;100.00;101256.97;4970659;28;20285;-70
2023/10/28 07:03:37;;;;;;;21.00;14.73;;;;;;;9.77;100.00;101262.59;4975803;28;20854;-70
2023/10/28 07:06:04;;;;;;;29.40;15.83;;;;;;;9.55;100.00;101235.72;4974383;28;20197;-70
2023/10/28 07:08:29;;;;;;;28.30;15.90;;;;;;;9.33;100.00;101218.69;4975951;28;20440;-68
2023/10/28 07:10:55;;;;;;;26.97;15.40;;;;;;;9.72;100.00;101279.25;4976796;28;20468;-70
2023/10/28 07:13:21;;;;;;;22.10;14.43;;;;;;;9.44;100.00;101236.97;4978491;28;20186;-70
2023/10/28 07:15:48;;;;;;;21.27;13.27;;;;;;;9.59;100.00;101260.28;4979415;28;20436;-70
2023/10/28 07:18:13;;;;;;;26.87;14.17;;;;;;;9.60;100.00;101276.16;4979754;28;20194;-70
2023/10/28 07:20:40;;;;;;;17.57;12.10;;;;;;;9.93;100.00;101313.38;4979555;28;20455;-69
2023/10/28 07:23:06;;;;;;;23.53;14.47;;;;;;;9.83;100.00;101307.41;4978127;28;20453;-70
2023/10/28 07:25:31;;;;;;;24.33;15.20;;;;;;;9.38;100.00;101267.16;4973256;28;21038;-70
2023/10/28 07:27:56;;;;;;;19.40;13.10;;;;;;;9.89;100.00;101328.97;4977287;28;20188;-69
2023/10/28 07:30:22;;;;;;;23.13;13.77;;;;;;;9.77;100.00;101313.50;4980456;28;20209;-70
2023/10/28 07:32:47;;;;;;;22.23;12.83;;;;;;;9.94;100.00;101339.13;4976797;28;20209;-69
2023/10/28 07:35:13;;;;;;;26.33;13.77;;;;;;;9.86;100.00;101333.84;4973309;28;20194;-69
2023/10/28 07:37:41;;;;;;;24.70;13.73;;;;;;;9.67;100.00;101290.50;4974587;28;20197;-70
2023/10/28 07:40:07;;;;;;;23.37;13.80;;;;;;;9.72;100.00;101308.72;4976155;28;20213;-70
2023/10/28 07:42:34;;;;;;;22.03;13.20;;;;;;;9.58;100.00;101285.41;4978348;28;20508;-69
2023/10/28 07:44:59;;;;;;;21.47;13.60;;;;;;;9.35;100.00;101259.50;4978218;28;20460;-70
2023/10/28 07:47:25;;;;;;;21.33;12.23;;;;;;;9.84;100.00;101339.41;4969940;28;20453;-71
2023/10/28 07:49:50;;;;;;;15.97;10.77;;;;;;;9.98;100.00;101356.53;4973849;28;20241;-71
2023/10/28 07:52:16;;;;;;;18.70;11.23;;;;;;;10.07;100.00;101368.84;4973625;28;20209;-72
2023/10/28 07:54:42;;;;;;;26.70;12.50;;;;;;;10.15;100.00;101379.47;4981064;28;20190;-69
2023/10/28 07:57:08;;;;;;;15.03;11.57;;;;;;;8.31;100.00;101137.84;5007651;23;20221;-73
2023/10/28 07:59:33;;;;;;;17.10;10.63;;;;;;;9.50;100.00;101321.13;5019676;28;20466;-73
2023/10/28 08:02:00;;;;;;;18.63;12.20;;;;;;;8.70;100.00;101169.03;5024484;28;20574;-73
2023/10/28 08:04:25;;;;;;;18.27;10.67;;;;;;;8.45;100.00;101150.50;5026796;28;20222;-73
2023/10/28 08:06:51;;;;;;;22.33;10.50;;;;;;;8.37;100.00;101092.53;5022491;28;20446;-73
2023/10/28 08:09:17;;;;;;;17.33;10.30;;;;;;;8.05;100.00;101026.78;5025477;28;20576;-73
2023/10/28 08:11:42;;;;;;;14.97;9.57;;;;;;;8.22;100.00;101072.09;5019884;28;20187;-74
2023/10/28 08:14:08;;;;;;;15.60;9.57;;;;;;;8.72;100.00;101191.91;5020050;28;20173;-74
2023/10/28 08:16:35;;;;;;;12.20;8.33;;;;;;;8.52;100.00;101142.59;5022106;28;20299;-74
2023/10/28 08:19:01;;;;;;;15.93;9.33;;;;;;;8.26;100.00;101105.47;5022229;28;20270;-74
2023/10/28 08:21:27;;;;;;;15.33;8.97;;;;;;;10.10;100.00;101368.47;5025938;28;20868;-74
2023/10/28 08:23:52;;;;;;;16.67;9.10;;;;;;;8.66;100.00;101173.91;5026033;28;20462;-74
2023/10/28 08:26:18;;;;;;;13.80;8.37;;;;;;;8.72;100.00;101191.91;5028321;28;20543;-74
2023/10/28 08:28:46;;;;;;;12.53;8.87;;;;;;;8.62;100.00;101174.41;5023420;28;20212;-74
2023/10/28 08:31:12;;;;;;;10.60;7.43;;;;;;;8.41;100.00;101114.41;5023066;28;20548;-73
2023/10/28 08:33:41;;;;;;;14.70;8.10;;;;;;;8.80;100.00;101191.84;5022399;28;20438;-74
2023/10/28 08:36:07;;;;;;;10.33;7.70;;;;;;;8.22;100.00;101042.72;5023949;28;20561;-74
2023/10/28 08:38:33;;;;;;;11.53;8.03;;;;;;;10.14;100.00;101382.34;5022807;28;20455;-74
2023/10/28 08:41:00;;;;;;;10.27;6.90;;;;;;;8.34;100.00;101100.06;5020834;28;20526;-74
2023/10/28 08:43:26;;;;;;;12.27;7.40;;;;;;;8.96;100.00;101204.25;5027672;28;20204;-74
2023/10/28 08:45:53;;;;;;;10.00;7.13;;;;;;;10.17;100.00;101377.44;5025836;28;21046;-74
2023/10/28 08:48:21;;;;;;;14.53;7.87;;;;;;;9.95;100.00;101338.97;5021559;28;20482;-74
2023/10/28 08:50:53;;;;;;;12.43;7.37;;;;;;;10.39;100.00;101407.91;5023568;28;20434;-73
2023/10/28 08:53:19;;;;;;;9.03;6.07;;;;;;;10.48;100.00;101402.47;5023868;28;20471;-74
2023/10/28 08:55:49;;;;;;;13.73;7.03;;;;;;;10.19;100.00;101367.38;5025500;28;20460;-73
2023/10/28 08:58:16;;;;;;;11.03;6.90;;;;;;;10.27;100.00;101371.84;5018545;28;20827;-73
2023/10/28 09:00:43;;;;;;;10.90;6.00;;;;;;;10.33;100.00;101362.25;5025982;28;20525;-73
2023/10/28 09:03:10;;;;;;;10.07;6.40;;;;;;;10.28;100.00;101338.66;5023051;28;20459;-73
2023/10/28 09:05:35;;;;;;;7.37;5.20;;;;;;;10.61;100.00;101365.09;5023670;28;20438;-73
2023/10/28 09:08:00;;;;;;;10.17;5.27;;;;;;;10.25;100.00;101328.25;5020665;28;20439;-73
2023/10/28 09:10:26;;;;;;;6.37;3.90;;;;;;;10.48;100.00;101333.56;5022159;28;20238;-73
2023/10/28 09:12:52;;;;;;;9.50;5.37;;;;;;;10.58;100.00;101350.19;5023900;28;20252;-73
2023/10/28 09:15:18;;;;;;;8.13;5.00;;;;;;;9.66;100.00;101208.50;5026197;28;20621;-74
2023/10/28 09:17:44;;;;;;;12.40;4.70;;;;;;;10.74;100.00;101338.44;5026201;28;20195;-73
2023/10/28 09:20:09;;;;;;;8.53;5.00;;;;;;;10.66;100.00;101319.75;5026219;28;20464;-73
2023/10/28 09:22:42;;;;;;;8.83;4.97;;;;;;;10.63;100.00;101312.09;5027461;28;20180;-73
2023/10/28 09:25:14;;;;;;;7.60;4.13;;;;;;;10.73;100.00;101311.78;5024151;28;20195;-73
2023/10/28 09:27:40;;;;;;;8.73;4.77;;;;;;;10.68;100.00;101272.13;5024952;28;20431;-73
2023/10/28 09:30:09;;;;;;;6.37;4.57;;;;;;;10.74;100.00;101292.00;5018976;28;20541;-73
2023/10/28 09:32:37;;;;;;;9.17;5.07;;;;;;;10.53;100.00;101258.75;5022994;28;20474;-73
2023/10/28 09:35:05;;;;;;;8.30;5.30;;;;;;;10.42;100.00;101235.09;5028676;28;20439;-73
2023/10/28 09:37:35;;;;;;;6.87;4.77;;;;;;;10.55;100.00;101270.09;5027298;28;20450;-73
2023/10/28 09:40:10;;;;;;;7.47;4.53;;;;;;;10.79;100.00;101271.63;5024588;28;20454;-73
2023/10/28 09:42:37;;;;;;;10.40;4.47;;;;;;;10.67;100.00;101259.69;5022895;28;20533;-74
2023/10/28 09:45:05;;;;;;;7.33;4.40;;;;;;;10.52;100.00;101235.59;5027647;28;20898;-74
2023/10/28 09:48:05;;;;;;;10.17;4.93;;;;;;;10.71;100.00;101276.28;5028011;28;20776;-73
2023/10/28 09:50:33;;;;;;;10.67;4.70;;;;;;;10.44;100.00;101242.94;5025761;28;20415;-73
2023/10/28 09:52:58;;;;;;;9.53;4.60;;;;;;;10.70;100.00;101258.50;5019800;28;20466;-73
2023/10/28 09:55:27;;;;;;;6.20;3.40;;;;;;;10.91;100.00;101282.69;5015866;28;20447;-73
2023/10/28 09:58:04;;;;;;;7.53;4.60;;;;;;;10.44;100.00;101249.13;5019169;28;20220;-73
2023/10/28 10:00:31;;;;;;;14.37;4.20;;;;;;;10.78;100.00;101295.94;5024102;28;20485;-73
2023/10/28 10:03:03;;;;;;;11.67;4.47;;;;;;;10.83;100.00;101296.22;5020063;28;20468;-74
2023/10/28 10:05:41;;;;;;;6.60;3.40;;;;;;;10.16;100.00;101147.91;5024871;28;20462;-74
2023/10/28 10:08:21;;;;;;;6.50;3.30;;;;;;;11.12;100.00;101268.44;5023801;28;20431;-74
2023/10/28 10:10:49;;;;;;;5.33;2.73;;;;;;;11.48;100.00;101249.53;5026195;28;20497;-73
2023/10/28 10:13:16;;;;;;;5.50;3.20;;;;;;;11.59;100.00;101202.50;5023140;28;20438;-73
2023/10/28 10:15:54;;;;;;;5.80;3.30;;;;;;;11.70;100.00;101182.31;5023606;28;20439;-72
2023/10/28 10:18:37;;;;;;;9.03;3.67;;;;;;;11.25;100.00;101096.72;5027938;28;20458;-72
2023/10/28 10:21:14;;;;;;;8.07;3.60;;;;;;;11.26;100.00;101070.69;5023390;28;20447;-72
2023/10/28 10:23:43;;;;;;;6.30;3.60;;;;;;;11.39;100.00;101097.63;5024454;28;20467;-73
2023/10/28 10:26:31;;;;;;;6.50;3.43;;;;;;;11.30;100.00;101051.28;5029221;28;20427;-72
2023/10/28 10:29:02;;;;;;;9.97;3.60;;;;;;;10.88;100.00;101021.91;5024996;28;20482;-72
2023/10/28 10:31:36;;;;;;;8.50;4.07;;;;;;;10.90;100.00;101022.56;5024311;28;20907;-72
2023/10/28 10:34:07;;;;;;;7.90;3.90;;;;;;;11.20;100.00;101041.97;5022417;28;20850;-72
2023/10/28 10:36:43;;;;;;;7.60;3.60;;;;;;;10.55;100.00;100947.41;5025730;28;20536;-74
2023/10/28 10:39:14;;;;;;;6.23;3.03;;;;;;;11.18;100.00;101022.53;5024596;28;20516;-76
2023/10/28 10:41:40;;;;;;;6.40;3.13;;;;;;;11.28;100.00;101014.91;5022004;28;20415;-75
2023/10/28 10:44:25;;;;;;;9.33;3.57;;;;;;;11.31;100.00;101010.00;5026420;28;20467;-74
2023/10/28 10:46:56;;;;;;;9.03;3.80;;;;;;;11.28;100.00;100998.81;5026718;28;20912;-75
2023/10/28 10:49:21;;;;;;;7.07;3.97;;;;;;;11.08;100.00;100978.09;5027784;28;20474;-75
2023/10/28 10:51:47;;;;;;;8.40;3.50;;;;;;;11.16;100.00;100995.03;5023788;28;20466;-73
2023/10/28 10:54:16;;;;;;;9.73;3.80;;;;;;;11.08;100.00;100978.09;5022767;28;20181;-73
2023/10/28 10:56:42;;;;;;;10.77;3.80;;;;;;;10.64;100.00;100900.63;5024769;28;20438;-74
2023/10/28 10:59:07;;;;;;;9.93;3.30;;;;;;;10.91;100.00;100944.53;5023538;28;20452;-74
2023/10/28 11:01:33;;;;;;;6.53;3.53;;;;;;;11.03;100.00;100940.25;5018957;28;20189;-73
2023/10/28 11:03:58;;;;;;;11.13;3.47;;;;;;;10.98;100.00;100918.56;5024906;28;20208;-74
2023/10/28 11:06:24;;;;;;;10.67;3.27;;;;;;;11.19;100.00;100944.44;5023334;28;20668;-75
2023/10/28 11:08:50;;;;;;;5.60;2.70;;;;;;;11.18;100.00;100932.06;5024325;28;20207;-75
2023/10/28 11:11:15;;;;;;;7.93;3.23;;;;;;;10.68;100.00;100850.09;5024875;28;20434;-74
2023/10/28 11:13:43;;;;;;;6.00;2.67;;;;;;;10.73;100.00;100851.16;5028241;28;20168;-75
2023/10/28 11:16:28;;;;;;;9.93;3.13;;;;;;;11.23;100.00;100931.47;5025642;28;20192;-75